createdAt,value
2023-01-20T00:00:15.555Z,54.57
2023-01-20T00:02:53.197Z,54.29
2023-01-20T00:05:21.205Z,54.40
2023-01-20T00:07:49.176Z,54.20
2023-01-20T00:10:18.878Z,54.54
2023-01-20T00:12:46.896Z,54.32
2023-01-20T00:15:15.508Z,54.51
2023-01-20T00:17:43.656Z,54.87
2023-01-20T00:20:13.790Z,55.02
2023-01-20T00:22:42.437Z,54.87
2023-01-20T00:25:11.092Z,54.40
2023-01-20T00:27:40.598Z,54.58
2023-01-20T00:30:10.987Z,55.12
2023-01-20T00:32:39.420Z,54.90
2023-01-20T00:35:08.789Z,54.65
2023-01-20T00:37:36.771Z,54.86
2023-01-20T00:40:05.163Z,54.63
2023-01-20T00:42:33.266Z,54.64
2023-01-20T00:45:03.087Z,54.76
2023-01-20T00:47:35.663Z,55.28
2023-01-20T00:50:03.859Z,55.59
2023-01-20T00:52:35.651Z,55.38
2023-01-20T00:55:03.723Z,55.01
2023-01-20T00:57:31.644Z,55.06
2023-01-20T01:00:02.259Z,54.84
2023-01-20T01:02:31.795Z,55.45
2023-01-20T01:05:00.999Z,55.29
2023-01-20T01:07:31.675Z,54.74
2023-01-20T01:09:59.667Z,55.78
2023-01-20T01:12:27.653Z,55.64
2023-01-20T01:14:55.870Z,55.08
2023-01-20T01:17:24.197Z,54.88
2023-01-20T01:19:56.909Z,55.03
2023-01-20T01:22:25.111Z,54.78
2023-01-20T01:24:53.117Z,55.05
2023-01-20T01:27:21.246Z,55.18
2023-01-20T01:29:51.674Z,55.84
2023-01-20T01:32:23.506Z,55.36
2023-01-20T01:34:51.498Z,55.63
2023-01-20T01:37:30.150Z,55.92
2023-01-20T01:39:58.278Z,55.57
2023-01-20T01:42:29.111Z,55.55
2023-01-20T01:45:18.790Z,55.83
2023-01-20T01:47:49.213Z,55.61
2023-01-20T01:50:18.882Z,55.62
2023-01-20T01:52:52.267Z,55.51
2023-01-20T01:55:29.261Z,55.88
2023-01-20T01:57:57.710Z,55.04
2023-01-20T02:00:26.670Z,55.69
2023-01-20T02:02:54.673Z,55.92
2023-01-20T02:05:22.644Z,55.81
2023-01-20T02:07:53.513Z,55.23
2023-01-20T02:10:22.467Z,55.37
2023-01-20T02:12:51.853Z,55.52
2023-01-20T02:15:23.963Z,56.11
2023-01-20T02:18:02.264Z,55.83
2023-01-20T02:20:53.924Z,56.35
2023-01-20T02:23:35.239Z,55.88
2023-01-20T02:26:20.572Z,55.63
2023-01-20T02:29:21.635Z,55.57
2023-01-20T02:32:09.416Z,55.50
2023-01-20T02:34:41.196Z,56.07
2023-01-20T02:37:12.434Z,55.97
2023-01-20T02:39:45.170Z,56.29
2023-01-20T02:42:15.275Z,56.04
2023-01-20T02:44:49.130Z,56.34
2023-01-20T02:47:20.733Z,55.95
2023-01-20T02:49:53.446Z,55.58
2023-01-20T02:52:23.869Z,56.27
2023-01-20T02:54:55.729Z,56.48
2023-01-20T02:57:26.915Z,56.09
2023-01-20T03:00:00.359Z,55.69
2023-01-20T03:02:32.754Z,55.98
2023-01-20T03:05:04.676Z,55.82
2023-01-20T03:07:33.992Z,56.30
2023-01-20T03:10:07.521Z,56.26
2023-01-20T03:12:36.748Z,55.66
2023-01-20T03:15:07.789Z,55.98
2023-01-20T03:17:37.233Z,56.27
2023-01-20T03:20:06.151Z,56.24
2023-01-20T03:22:34.123Z,55.72
2023-01-20T03:25:02.104Z,56.05
2023-01-20T03:27:35.351Z,55.54
2023-01-20T03:30:03.963Z,55.82
2023-01-20T03:32:32.250Z,55.87
2023-01-20T03:35:01.653Z,56.39
2023-01-20T03:37:32.074Z,55.73
2023-01-20T03:40:01.811Z,56.09
2023-01-20T03:42:31.148Z,56.31
2023-01-20T03:45:04.910Z,56.31
2023-01-20T03:47:51.843Z,55.96
2023-01-20T03:50:33.222Z,56.45
2023-01-20T03:53:06.064Z,56.18
2023-01-20T03:55:36.942Z,56.07
2023-01-20T03:58:06.206Z,56.51
2023-01-20T04:00:36.066Z,55.93
2023-01-20T04:03:06.205Z,55.81
2023-01-20T04:05:35.648Z,56.32
2023-01-20T04:08:06.506Z,55.97
2023-01-20T04:10:34.533Z,56.71
2023-01-20T04:13:02.529Z,56.24
2023-01-20T04:15:32.612Z,56.13
2023-01-20T04:18:11.955Z,55.72
2023-01-20T04:20:41.639Z,56.57
2023-01-20T04:23:10.053Z,56.07
2023-01-20T04:25:38.109Z,56.16
2023-01-20T04:28:06.095Z,56.21
2023-01-20T04:30:34.261Z,56.40
2023-01-20T04:33:02.298Z,56.03
2023-01-20T04:35:30.294Z,56.71
2023-01-20T04:37:59.569Z,56.29
2023-01-20T04:40:27.926Z,56.08
2023-01-20T04:43:04.720Z,56.39
2023-01-20T04:45:32.704Z,56.18
2023-01-20T04:48:00.693Z,55.79
2023-01-20T04:50:28.640Z,56.18
2023-01-20T04:52:56.801Z,56.53
2023-01-20T04:55:26.506Z,56.58
2023-01-20T04:57:54.836Z,56.55
2023-01-20T05:00:22.916Z,56.28
2023-01-20T05:02:51.278Z,56.90
2023-01-20T05:05:19.361Z,56.45
2023-01-20T05:07:47.388Z,56.52
2023-01-20T05:10:16.916Z,56.59
2023-01-20T05:12:48.828Z,56.91
2023-01-20T05:15:17.184Z,56.47
2023-01-20T05:17:46.649Z,56.47
2023-01-20T05:20:29.609Z,56.48
2023-01-20T05:23:01.139Z,56.74
2023-01-20T05:25:29.607Z,56.75
2023-01-20T05:27:59.493Z,57.00
2023-01-20T05:30:27.524Z,57.33
2023-01-20T05:32:58.160Z,57.18
2023-01-20T05:35:26.206Z,56.70
2023-01-20T05:37:56.784Z,56.54
2023-01-20T05:40:24.796Z,57.21
2023-01-20T05:42:52.781Z,56.50
2023-01-20T05:45:29.454Z,56.89
2023-01-20T05:48:06.515Z,57.25
2023-01-20T05:50:34.619Z,56.75
2023-01-20T05:53:03.239Z,57.21
2023-01-20T05:55:31.252Z,57.49
2023-01-20T05:57:59.240Z,56.67
2023-01-20T06:00:30.980Z,57.17
2023-01-20T06:02:59.174Z,56.81
2023-01-20T06:05:27.260Z,57.07
2023-01-20T06:07:57.214Z,57.25
2023-01-20T06:10:28.073Z,56.60
2023-01-20T06:12:56.312Z,57.08
2023-01-20T06:15:24.314Z,57.06
2023-01-20T06:17:53.949Z,56.96
2023-01-20T06:20:21.950Z,56.82
2023-01-20T06:22:49.942Z,57.13
2023-01-20T06:25:20.565Z,57.20
2023-01-20T06:27:51.391Z,57.00
2023-01-20T06:30:21.073Z,57.45
2023-01-20T06:32:49.177Z,57.09
2023-01-20T06:35:21.699Z,57.46
2023-01-20T06:37:52.214Z,57.55
2023-01-20T06:40:20.511Z,57.08
2023-01-20T06:42:51.255Z,57.88
2023-01-20T06:45:20.335Z,57.25
2023-01-20T06:47:49.921Z,57.07
2023-01-20T06:50:20.596Z,57.22
2023-01-20T06:52:48.584Z,57.44
2023-01-20T06:55:17.017Z,57.08
2023-01-20T06:57:48.377Z,57.19
2023-01-20T07:00:17.455Z,57.54
2023-01-20T07:02:45.503Z,57.46
2023-01-20T07:05:16.136Z,57.36
2023-01-20T07:07:47.613Z,57.22
2023-01-20T07:10:15.686Z,57.68
2023-01-20T07:12:45.460Z,58.02
2023-01-20T07:15:24.147Z,57.75
2023-01-20T07:17:52.138Z,58.26
2023-01-20T07:20:20.490Z,58.47
2023-01-20T07:22:50.142Z,57.89
2023-01-20T07:25:19.492Z,57.89
2023-01-20T07:27:49.972Z,57.57
2023-01-20T07:30:18.797Z,58.18
2023-01-20T07:32:50.783Z,58.06
2023-01-20T07:35:20.156Z,58.14
2023-01-20T07:37:57.210Z,58.22
2023-01-20T07:40:25.552Z,57.99
2023-01-20T07:42:54.491Z,58.44
2023-01-20T07:45:22.505Z,58.09
2023-01-20T07:47:57.082Z,58.56
2023-01-20T07:50:32.832Z,58.58
2023-01-20T07:53:04.980Z,58.79
2023-01-20T07:55:35.658Z,58.67
2023-01-20T07:58:04.031Z,58.70
2023-01-20T08:00:34.441Z,58.40
2023-01-20T08:03:03.620Z,59.05
2023-01-20T08:05:33.390Z,58.46
2023-01-20T08:08:02.826Z,58.88
2023-01-20T08:10:31.570Z,58.06
2023-01-20T08:12:59.664Z,58.74
2023-01-20T08:15:31.478Z,58.63
2023-01-20T08:18:00.790Z,58.55
2023-01-20T08:20:30.588Z,58.79
2023-01-20T08:22:58.552Z,58.64
2023-01-20T08:25:27.943Z,58.53
2023-01-20T08:27:57.609Z,58.72
2023-01-20T08:30:29.331Z,59.29
2023-01-20T08:32:58.427Z,58.23
2023-01-20T08:35:26.864Z,58.83
2023-01-20T08:37:54.950Z,58.67
2023-01-20T08:40:22.933Z,59.39
2023-01-20T08:42:54.702Z,59.05
2023-01-20T08:45:23.684Z,59.12
2023-01-20T08:47:52.187Z,58.68
2023-01-20T08:50:23.512Z,58.57
2023-01-20T08:52:59.679Z,58.49
2023-01-20T08:55:38.657Z,59.04
2023-01-20T08:58:08.193Z,59.10
2023-01-20T09:00:36.296Z,59.00
2023-01-20T09:03:04.867Z,59.03
2023-01-20T09:05:33.533Z,58.72
2023-01-20T09:08:10.461Z,59.28
2023-01-20T09:10:38.451Z,58.99
2023-01-20T09:13:06.492Z,58.91
2023-01-20T09:15:45.319Z,58.71
2023-01-20T09:18:14.028Z,58.79
2023-01-20T09:20:42.167Z,58.68
2023-01-20T09:23:11.532Z,59.14
2023-01-20T09:25:41.513Z,59.00
2023-01-20T09:28:10.275Z,58.89
2023-01-20T09:30:39.697Z,59.20
2023-01-20T09:33:07.741Z,59.27
2023-01-20T09:35:37.027Z,59.25
2023-01-20T09:38:22.493Z,59.55
2023-01-20T09:41:14.683Z,59.12
2023-01-20T09:43:55.328Z,59.64
2023-01-20T09:46:37.767Z,59.44
2023-01-20T09:49:29.611Z,59.10
2023-01-20T09:52:20.893Z,59.19
2023-01-20T09:54:53.834Z,59.34
2023-01-20T09:57:23.465Z,59.30
2023-01-20T09:59:53.922Z,59.33
2023-01-20T10:02:34.116Z,59.30
2023-01-20T10:05:04.053Z,58.92
2023-01-20T10:07:38.631Z,59.29
2023-01-20T10:10:11.035Z,59.85
2023-01-20T10:12:41.176Z,59.69
2023-01-20T10:15:12.264Z,59.39
2023-01-20T10:17:44.599Z,58.96
2023-01-20T10:20:18.270Z,59.67
2023-01-20T10:22:47.092Z,59.25
2023-01-20T10:25:17.243Z,59.17
2023-01-20T10:27:51.426Z,59.22
2023-01-20T10:30:19.726Z,59.58
2023-01-20T10:32:52.196Z,59.10
2023-01-20T10:35:24.097Z,59.44
2023-01-20T10:37:52.821Z,59.10
2023-01-20T10:40:34.209Z,59.21
2023-01-20T10:43:10.737Z,59.32
2023-01-20T10:45:44.072Z,59.05
2023-01-20T10:48:19.816Z,58.95
2023-01-20T10:50:51.438Z,59.21
2023-01-20T10:53:27.614Z,59.09
2023-01-20T10:56:03.491Z,59.05
2023-01-20T10:58:32.443Z,58.93
2023-01-20T11:01:02.878Z,58.82
2023-01-20T11:03:35.742Z,58.67
2023-01-20T11:06:06.346Z,58.77
2023-01-20T11:08:35.015Z,58.84
2023-01-20T11:13:54.041Z,58.53
2023-01-20T11:16:25.952Z,58.44
2023-01-20T11:19:01.085Z,58.10
2023-01-20T11:21:31.856Z,58.16
2023-01-20T11:24:02.092Z,58.19
2023-01-20T11:26:31.453Z,58.12
2023-01-20T11:29:01.278Z,58.22
2023-01-20T11:31:39.472Z,57.94
2023-01-20T11:34:33.541Z,58.12
2023-01-20T11:37:25.705Z,58.26
2023-01-20T11:40:08.982Z,58.07
2023-01-20T11:42:46.086Z,57.68
2023-01-20T11:45:33.362Z,57.78
2023-01-20T11:48:19.219Z,57.67
2023-01-20T11:50:50.432Z,57.88
2023-01-20T11:53:21.236Z,57.66
2023-01-20T11:55:52.137Z,57.73
2023-01-20T11:58:21.790Z,57.82
2023-01-20T12:00:53.465Z,57.51
2023-01-20T12:03:45.627Z,57.55
2023-01-20T12:06:19.389Z,57.44
2023-01-20T12:08:50.677Z,57.50
2023-01-20T12:11:22.868Z,57.50
2023-01-20T12:14:18.513Z,57.48
2023-01-20T12:16:47.333Z,57.78
2023-01-20T12:19:21.630Z,57.53
2023-01-20T12:21:55.634Z,57.46
2023-01-20T12:24:42.224Z,57.43
2023-01-20T12:27:16.023Z,57.25
2023-01-20T12:29:52.866Z,57.32
2023-01-20T12:32:20.872Z,57.10
2023-01-20T12:34:49.070Z,57.14
2023-01-20T12:37:20.740Z,56.93
2023-01-20T12:40:04.357Z,57.12
2023-01-20T12:43:02.324Z,57.06
2023-01-20T12:45:38.261Z,56.95
2023-01-20T12:48:23.124Z,57.01
2023-01-20T12:51:06.083Z,57.22
2023-01-20T12:53:50.374Z,56.97
2023-01-20T12:56:27.004Z,56.58
2023-01-20T12:58:59.168Z,56.72
2023-01-20T13:01:42.855Z,56.90
2023-01-20T13:04:46.461Z,56.80
2023-01-20T13:07:39.839Z,56.47
2023-01-20T13:10:32.965Z,56.52
2023-01-20T13:13:06.639Z,56.53
2023-01-20T13:15:36.897Z,56.33
2023-01-20T13:18:24.655Z,56.36
2023-01-20T13:20:53.156Z,56.29
2023-01-20T13:23:39.132Z,56.02
2023-01-20T13:26:19.047Z,56.00
2023-01-20T13:29:01.046Z,56.19
2023-01-20T13:31:37.680Z,56.01
2023-01-20T13:34:38.899Z,56.14
2023-01-20T13:37:32.352Z,55.71
2023-01-20T13:40:01.143Z,55.68
2023-01-20T13:42:34.923Z,55.40
2023-01-20T13:45:31.632Z,55.05
2023-01-20T13:48:02.155Z,54.93
2023-01-20T13:51:47.958Z,54.74
2023-01-20T13:54:44.532Z,54.76
2023-01-20T13:57:42.960Z,54.60
2023-01-20T14:00:19.397Z,54.82
2023-01-20T14:02:49.557Z,54.25
2023-01-20T14:05:27.978Z,54.48
2023-01-20T14:07:57.138Z,54.63
2023-01-20T14:10:35.481Z,54.62
2023-01-20T14:13:10.400Z,54.74
2023-01-20T14:15:41.343Z,54.44
2023-01-20T14:18:23.973Z,54.93
2023-01-20T14:21:03.447Z,55.00
2023-01-20T14:23:34.656Z,54.83
2023-01-20T14:26:14.044Z,54.94
2023-01-20T14:28:51.457Z,54.74
2023-01-20T14:31:40.440Z,54.70
2023-01-20T14:34:24.906Z,54.89
2023-01-20T14:36:53.325Z,54.44
2023-01-20T14:39:22.626Z,54.66
2023-01-20T14:41:53.666Z,54.85
2023-01-20T14:44:26.533Z,55.10
2023-01-20T14:46:55.530Z,55.03
2023-01-20T14:49:27.437Z,54.97
2023-01-20T14:51:56.877Z,55.01
2023-01-20T14:54:35.630Z,55.05
2023-01-20T14:57:13.064Z,54.96
2023-01-20T14:59:43.990Z,54.79
2023-01-20T15:02:18.205Z,54.67
2023-01-20T15:04:46.297Z,54.75
2023-01-20T15:07:19.424Z,54.54
2023-01-20T15:09:52.925Z,54.47
2023-01-20T15:12:47.903Z,54.79
2023-01-20T15:15:35.428Z,54.58
2023-01-20T15:18:29.023Z,54.80
2023-01-20T15:21:16.420Z,54.36
2023-01-20T15:23:53.422Z,54.59
2023-01-20T15:26:27.797Z,54.66
2023-01-20T15:28:55.829Z,54.67
2023-01-20T15:31:26.736Z,54.81
2023-01-20T15:36:40.315Z,54.98
2023-01-20T15:39:11.356Z,54.76
2023-01-20T15:41:39.731Z,54.96
2023-01-20T15:44:08.787Z,54.96
2023-01-20T15:46:38.884Z,54.81
2023-01-20T15:49:08.011Z,55.13
2023-01-20T15:51:41.698Z,55.10
2023-01-20T15:54:10.572Z,55.01
2023-01-20T15:56:41.606Z,54.86
2023-01-20T15:59:13.021Z,54.84
2023-01-20T16:01:43.375Z,54.82
2023-01-20T16:04:11.615Z,54.89
2023-01-20T16:06:40.468Z,55.05
2023-01-20T16:09:16.628Z,55.23
2023-01-20T16:11:47.683Z,55.16
2023-01-20T16:14:15.902Z,55.40
2023-01-20T16:16:48.611Z,55.30
2023-01-20T16:19:19.710Z,55.27
2023-01-20T16:21:47.886Z,55.27
2023-01-20T16:24:16.874Z,55.56
2023-01-20T16:26:45.033Z,55.41
2023-01-20T16:29:27.008Z,55.24
2023-01-20T16:31:56.630Z,55.41
2023-01-20T16:34:25.643Z,55.46
2023-01-20T16:36:56.129Z,55.50
2023-01-20T16:39:25.303Z,55.69
2023-01-20T16:41:57.782Z,55.78
2023-01-20T16:44:26.272Z,55.85
2023-01-20T16:46:54.273Z,55.96
2023-01-20T16:49:23.647Z,55.84
2023-01-20T16:51:59.799Z,55.76
2023-01-20T16:54:28.644Z,56.07
2023-01-20T16:56:59.259Z,56.16
2023-01-20T16:59:27.438Z,56.01
2023-01-20T17:04:50.549Z,56.39
2023-01-20T17:07:18.776Z,56.41
2023-01-20T17:09:47.285Z,56.38
2023-01-20T17:12:16.801Z,56.59
2023-01-20T17:14:44.877Z,56.74
2023-01-20T17:17:16.642Z,56.89
2023-01-20T17:19:44.750Z,56.74
2023-01-20T17:22:20.363Z,57.06
2023-01-20T17:24:50.300Z,56.86
2023-01-20T17:27:19.265Z,57.01
2023-01-20T17:29:52.097Z,57.23
2023-01-20T17:32:26.348Z,57.08
2023-01-20T17:34:54.669Z,56.88
2023-01-20T17:37:31.641Z,56.81
2023-01-20T17:40:03.775Z,56.85
2023-01-20T17:42:31.875Z,56.89
2023-01-20T17:45:02.335Z,57.35
2023-01-20T17:47:31.603Z,56.83
2023-01-20T17:50:03.029Z,57.16
2023-01-20T17:52:32.492Z,57.20
2023-01-20T17:55:00.438Z,56.97
2023-01-20T17:57:30.221Z,57.54
2023-01-20T17:59:58.183Z,57.20
2023-01-20T18:02:27.761Z,57.56
2023-01-20T18:04:55.777Z,57.23
2023-01-20T18:07:24.971Z,57.45
2023-01-20T18:09:54.437Z,57.54
2023-01-20T18:12:31.303Z,57.48
2023-01-20T18:14:59.453Z,57.53
2023-01-20T18:17:34.421Z,57.29
2023-01-20T18:20:03.785Z,57.86
2023-01-20T18:22:32.034Z,57.80
2023-01-20T18:25:04.191Z,58.12
2023-01-20T18:27:33.151Z,57.83
2023-01-20T18:30:01.352Z,57.79
2023-01-20T18:32:32.464Z,57.65
2023-01-20T18:35:15.259Z,57.95
2023-01-20T18:37:44.019Z,57.31
2023-01-20T18:40:14.801Z,57.80
2023-01-20T18:42:50.734Z,57.81
2023-01-20T18:45:20.155Z,57.83
2023-01-20T18:47:49.494Z,57.43
2023-01-20T18:50:18.269Z,57.55
2023-01-20T18:52:46.408Z,57.50
2023-01-20T18:55:18.281Z,57.96
2023-01-20T18:57:52.962Z,57.96
2023-01-20T19:00:21.467Z,57.95
2023-01-20T19:02:52.149Z,57.76
2023-01-20T19:05:20.158Z,57.99
2023-01-20T19:07:52.263Z,57.43
2023-01-20T19:10:21.897Z,57.63
2023-01-20T19:12:51.688Z,57.37
2023-01-20T19:15:19.718Z,57.73
2023-01-20T19:17:49.952Z,57.79
2023-01-20T19:20:20.769Z,57.73
2023-01-20T19:22:48.828Z,58.14
2023-01-20T19:25:17.002Z,57.89
2023-01-20T19:27:46.544Z,57.60
2023-01-20T19:30:15.626Z,57.81
2023-01-20T19:32:45.141Z,57.92
2023-01-20T19:35:17.514Z,57.71
2023-01-20T19:37:45.695Z,57.59
2023-01-20T19:40:14.471Z,57.51
2023-01-20T19:42:42.902Z,57.96
2023-01-20T19:45:12.700Z,57.71
2023-01-20T19:47:40.721Z,58.29
2023-01-20T19:50:09.804Z,58.33
2023-01-20T19:52:38.975Z,57.73
2023-01-20T19:55:07.457Z,57.93
2023-01-20T19:57:38.132Z,58.26
2023-01-20T20:00:08.780Z,57.83
2023-01-20T20:02:41.324Z,58.13
2023-01-20T20:05:11.331Z,57.44
2023-01-20T20:07:42.047Z,57.88
2023-01-20T20:10:11.799Z,57.62
2023-01-20T20:12:39.913Z,57.73
2023-01-20T20:15:08.661Z,57.38
2023-01-20T20:17:36.661Z,57.63
2023-01-20T20:20:06.945Z,57.91
2023-01-20T20:22:37.395Z,57.73
2023-01-20T20:25:14.935Z,57.41
2023-01-20T20:27:43.458Z,57.89
2023-01-20T20:30:26.547Z,57.49
2023-01-20T20:32:54.612Z,57.76
2023-01-20T20:35:23.951Z,57.73
2023-01-20T20:37:51.947Z,57.50
2023-01-20T20:40:19.954Z,57.71
2023-01-20T20:42:48.690Z,57.60
2023-01-20T20:45:18.656Z,57.64
2023-01-20T20:47:46.670Z,57.49
2023-01-20T20:50:15.000Z,57.36
2023-01-20T20:52:46.946Z,57.72
2023-01-20T20:55:18.552Z,57.46
2023-01-20T20:57:48.748Z,57.74
2023-01-20T21:00:17.270Z,57.43
2023-01-20T21:02:45.449Z,58.11
2023-01-20T21:05:13.460Z,57.74
2023-01-20T21:07:41.493Z,57.47
2023-01-20T21:10:14.155Z,57.64
2023-01-20T21:12:42.330Z,57.95
2023-01-20T21:15:11.305Z,57.19
2023-01-20T21:17:46.957Z,58.06
2023-01-20T21:20:17.624Z,57.72
2023-01-20T21:22:49.073Z,57.72
2023-01-20T21:25:27.272Z,57.82
2023-01-20T21:27:58.091Z,58.04
2023-01-20T21:30:26.091Z,58.45
2023-01-20T21:32:54.315Z,58.38
2023-01-20T21:35:24.215Z,58.13
2023-01-20T21:37:53.045Z,58.61
2023-01-20T21:40:22.966Z,58.44
2023-01-20T21:43:15.181Z,58.55
2023-01-20T21:45:42.726Z,57.98
2023-01-20T21:48:25.431Z,58.06
2023-01-20T21:51:11.550Z,58.20
2023-01-20T21:53:39.739Z,58.52
2023-01-20T21:56:09.349Z,58.24
2023-01-20T21:58:40.118Z,58.12
2023-01-20T22:01:08.209Z,57.92
2023-01-20T22:03:38.671Z,57.66
2023-01-20T22:06:07.307Z,57.91
2023-01-20T22:08:36.088Z,57.96
2023-01-20T22:11:06.699Z,57.96
2023-01-20T22:13:36.137Z,58.29
2023-01-20T22:16:05.522Z,57.67
2023-01-20T22:18:33.571Z,57.90
2023-01-20T22:21:05.059Z,58.13
2023-01-20T22:23:39.638Z,57.93
2023-01-20T22:26:14.060Z,58.15
2023-01-20T22:28:45.616Z,57.76
2023-01-20T22:31:17.253Z,58.12
2023-01-20T22:33:47.181Z,58.06
2023-01-20T22:36:17.952Z,57.61
2023-01-20T22:38:46.626Z,57.74
2023-01-20T22:41:15.540Z,57.52
2023-01-20T22:43:45.103Z,58.45
2023-01-20T22:46:14.351Z,57.87
2023-01-20T22:48:46.336Z,58.33
2023-01-20T22:51:17.749Z,58.10
2023-01-20T22:53:48.885Z,57.77
2023-01-20T22:56:18.936Z,58.11
2023-01-20T22:58:48.607Z,57.78
2023-01-20T23:01:26.743Z,57.69
2023-01-20T23:03:55.297Z,57.57
2023-01-20T23:06:23.443Z,57.96
2023-01-20T23:08:51.654Z,57.79
2023-01-20T23:11:20.975Z,58.00
2023-01-20T23:13:51.985Z,57.94
2023-01-20T23:16:22.306Z,57.92
2023-01-20T23:18:53.536Z,57.85
2023-01-20T23:21:24.415Z,57.75
2023-01-20T23:23:57.108Z,57.82
2023-01-20T23:26:26.097Z,58.08
2023-01-20T23:28:55.659Z,57.92
2023-01-20T23:31:24.947Z,57.63
2023-01-20T23:33:54.358Z,58.10
2023-01-20T23:36:24.795Z,57.37
2023-01-20T23:38:54.148Z,58.12
2023-01-20T23:41:22.321Z,57.71
2023-01-20T23:43:54.183Z,57.72
2023-01-20T23:46:23.605Z,57.62
2023-01-20T23:48:51.799Z,57.73
2023-01-20T23:51:22.314Z,57.53
2023-01-20T23:53:50.532Z,57.95
2023-01-20T23:56:20.089Z,57.84
2023-01-20T23:58:48.471Z,57.88
